createdAt,value
2022-09-26T00:01:10.523Z,7.45
2022-09-26T00:04:23.000Z,8.90
2022-09-26T00:07:28.903Z,7.20
2022-09-26T00:10:34.167Z,7.53
2022-09-26T00:13:40.836Z,6.03
2022-09-26T00:16:48.845Z,6.90
2022-09-26T00:19:53.904Z,6.32
2022-09-26T00:22:59.328Z,6.93
2022-09-26T00:26:04.584Z,7.22
2022-09-26T00:29:10.483Z,6.13
2022-09-26T00:32:18.366Z,6.35
2022-09-26T00:35:23.320Z,6.43
2022-09-26T00:38:28.497Z,6.75
2022-09-26T00:41:33.881Z,6.55
2022-09-26T00:44:47.922Z,6.50
2022-09-26T00:47:59.736Z,6.47
2022-09-26T00:51:04.988Z,5.78
2022-09-26T00:54:12.284Z,5.90
2022-09-26T00:57:19.167Z,6.78
2022-09-26T01:00:24.613Z,6.45
2022-09-26T01:03:34.169Z,6.00
2022-09-26T01:06:39.849Z,6.32
2022-09-26T01:09:45.610Z,6.63
2022-09-26T01:12:53.231Z,6.38
2022-09-26T01:15:58.195Z,5.97
2022-09-26T01:19:11.781Z,5.95
2022-09-26T01:22:38.011Z,6.35
2022-09-26T01:25:54.639Z,6.28
2022-09-26T01:29:14.483Z,6.57
2022-09-26T01:32:42.444Z,5.47
2022-09-26T01:36:11.229Z,6.25
2022-09-26T01:39:26.946Z,6.53
2022-09-26T01:42:37.417Z,6.15
2022-09-26T01:45:47.309Z,6.05
2022-09-26T01:48:57.242Z,6.90
2022-09-26T01:52:03.820Z,6.10
2022-09-26T01:55:11.538Z,6.30
2022-09-26T01:58:19.319Z,7.23
2022-09-26T02:01:25.982Z,5.65
2022-09-26T02:04:36.408Z,6.72
2022-09-26T02:07:45.505Z,5.85
2022-09-26T02:10:52.349Z,7.28
2022-09-26T02:13:59.865Z,6.93
2022-09-26T02:17:07.784Z,6.57
2022-09-26T02:20:18.723Z,6.88
2022-09-26T02:23:23.891Z,6.97
2022-09-26T02:26:32.383Z,6.10
2022-09-26T02:29:39.347Z,6.65
2022-09-26T02:32:45.422Z,7.60
2022-09-26T02:35:59.280Z,6.47
2022-09-26T02:39:08.472Z,6.82
2022-09-26T02:42:50.740Z,6.25
2022-09-26T02:46:00.582Z,6.07
2022-09-26T02:49:12.186Z,6.43
2022-09-26T02:52:24.798Z,6.45
2022-09-26T02:55:35.501Z,6.10
2022-09-26T02:58:48.198Z,5.78
2022-09-26T03:01:56.866Z,5.72
2022-09-26T03:05:05.106Z,7.15
2022-09-26T03:08:14.709Z,5.95
2022-09-26T03:11:21.491Z,5.53
2022-09-26T03:14:26.446Z,5.78
2022-09-26T03:17:31.478Z,5.65
2022-09-26T03:20:37.072Z,6.03
2022-09-26T03:23:45.211Z,6.38
2022-09-26T03:26:50.878Z,6.50
2022-09-26T03:29:56.525Z,6.28
2022-09-26T03:33:03.673Z,7.13
2022-09-26T03:36:10.191Z,7.22
2022-09-26T03:39:18.521Z,7.07
2022-09-26T03:42:43.659Z,7.18
2022-09-26T03:45:49.118Z,6.55
2022-09-26T03:48:59.326Z,6.45
2022-09-26T03:52:04.658Z,7.10
2022-09-26T03:55:12.785Z,7.07
2022-09-26T03:58:18.257Z,6.88
2022-09-26T04:01:24.212Z,7.22
2022-09-26T04:04:29.572Z,6.57
2022-09-26T04:07:34.559Z,6.03
2022-09-26T04:10:45.210Z,7.45
2022-09-26T04:13:53.391Z,7.18
2022-09-26T04:17:01.830Z,8.00
2022-09-26T04:20:12.149Z,7.00
2022-09-26T04:23:18.037Z,6.85
2022-09-26T04:26:26.431Z,5.88
2022-09-26T04:29:31.697Z,6.35
2022-09-26T04:32:46.254Z,6.88
2022-09-26T04:36:11.833Z,6.43
2022-09-26T04:39:17.530Z,6.03
2022-09-26T04:42:26.864Z,6.15
2022-09-26T04:45:33.818Z,5.88
2022-09-26T04:48:40.250Z,5.63
2022-09-26T04:51:56.253Z,6.45
2022-09-26T04:55:02.138Z,6.00
2022-09-26T04:58:10.895Z,5.10
2022-09-26T05:01:16.844Z,5.30
2022-09-26T05:04:39.869Z,6.00
2022-09-26T05:07:45.260Z,5.40
2022-09-26T05:10:55.325Z,5.95
2022-09-26T05:14:03.711Z,6.50
2022-09-26T05:20:15.912Z,6.40
2022-09-26T05:23:46.071Z,6.13
2022-09-26T05:26:55.479Z,7.03
2022-09-26T05:30:03.603Z,6.38
2022-09-26T05:33:08.759Z,6.65
2022-09-26T05:36:13.929Z,5.70
2022-09-26T05:39:31.295Z,6.15
2022-09-26T05:42:36.648Z,7.03
2022-09-26T05:45:50.520Z,5.18
2022-09-26T05:48:59.632Z,6.37
2022-09-26T05:52:05.330Z,6.10
2022-09-26T05:55:12.541Z,6.10
2022-09-26T05:58:37.217Z,6.22
2022-09-26T06:02:07.451Z,5.82
2022-09-26T06:05:30.567Z,5.13
2022-09-26T06:08:39.274Z,5.22
2022-09-26T06:12:10.611Z,4.57
2022-09-26T06:15:16.107Z,6.25
2022-09-26T06:18:24.110Z,6.10
2022-09-26T06:21:30.177Z,5.13
2022-09-26T06:24:47.301Z,5.22
2022-09-26T06:28:00.101Z,5.30
2022-09-26T06:31:12.022Z,5.22
2022-09-26T06:34:38.288Z,5.85
2022-09-26T06:38:12.479Z,5.93
2022-09-26T06:41:18.105Z,6.13
2022-09-26T06:44:24.709Z,5.53
2022-09-26T06:47:49.191Z,7.00
2022-09-26T06:51:13.739Z,6.88
2022-09-26T06:54:19.294Z,7.05
2022-09-26T06:57:25.120Z,7.55
2022-09-26T07:00:31.649Z,6.68
2022-09-26T07:03:54.131Z,6.85
2022-09-26T07:07:34.665Z,6.63
2022-09-26T07:10:39.916Z,6.07
2022-09-26T07:13:51.011Z,6.70
2022-09-26T07:16:56.104Z,6.43
2022-09-26T07:20:13.126Z,5.70
2022-09-26T07:23:46.689Z,5.55
2022-09-26T07:29:58.703Z,4.75
2022-09-26T07:33:05.668Z,5.13
2022-09-26T07:36:14.680Z,5.43
2022-09-26T07:39:23.631Z,4.63
2022-09-26T07:42:28.930Z,4.93
2022-09-26T07:45:46.195Z,4.80
2022-09-26T07:49:04.233Z,4.90
2022-09-26T07:52:15.186Z,4.78
2022-09-26T07:56:01.713Z,4.15
2022-09-26T07:59:25.854Z,4.15
2022-09-26T08:02:58.547Z,4.40
2022-09-26T08:06:04.353Z,3.80
2022-09-26T08:09:09.853Z,4.00
2022-09-26T08:12:40.354Z,2.72
2022-09-26T08:16:05.963Z,1.92
2022-09-26T08:19:17.643Z,1.10
2022-09-26T08:22:23.368Z,0.80
2022-09-26T08:25:31.583Z,1.47
2022-09-26T08:28:49.109Z,1.00
2022-09-26T08:31:55.405Z,1.20
2022-09-26T08:35:00.684Z,1.08
2022-09-26T08:38:14.824Z,1.30
2022-09-26T08:41:32.879Z,1.58
2022-09-26T08:45:27.558Z,1.48
2022-09-26T08:49:20.431Z,1.70
2022-09-26T08:52:30.353Z,1.60
2022-09-26T08:55:37.553Z,1.75
2022-09-26T08:58:44.117Z,1.67
2022-09-26T09:01:52.967Z,1.90
2022-09-26T09:05:08.278Z,2.78
2022-09-26T09:08:22.303Z,2.38
2022-09-26T09:11:59.749Z,2.00
2022-09-26T09:15:26.126Z,1.90
2022-09-26T09:19:01.125Z,2.05
2022-09-26T09:22:41.048Z,1.73
2022-09-26T09:27:52.307Z,2.00
2022-09-26T09:29:36.631Z,2.10
2022-09-26T09:33:13.553Z,1.98
2022-09-26T09:36:27.339Z,5.25
2022-09-26T09:40:15.168Z,1.80
2022-09-26T09:43:33.343Z,1.77
2022-09-26T09:46:46.712Z,1.70
2022-09-26T09:49:52.181Z,1.48
2022-09-26T09:53:06.583Z,1.42
2022-09-26T09:56:20.469Z,1.38
2022-09-26T09:59:39.941Z,1.30
2022-09-26T10:02:50.700Z,1.10
2022-09-26T10:06:01.665Z,1.10
2022-09-26T10:09:39.630Z,0.90
2022-09-26T10:13:04.230Z,0.90
2022-09-26T10:16:35.815Z,1.10
2022-09-26T10:19:46.500Z,1.38
2022-09-26T10:22:52.351Z,0.80
2022-09-26T10:26:06.275Z,1.75
2022-09-26T10:29:25.120Z,1.38
2022-09-26T10:32:32.352Z,3.70
2022-09-26T10:36:05.398Z,1.27
2022-09-26T10:39:32.567Z,1.52
2022-09-26T10:42:40.490Z,1.42
2022-09-26T10:45:46.689Z,1.67
2022-09-26T10:49:17.349Z,1.80
2022-09-26T10:52:43.216Z,1.80
2022-09-26T10:55:51.560Z,1.40
2022-09-26T11:02:06.199Z,1.00
2022-09-26T11:05:24.199Z,1.05
2022-09-26T11:08:41.353Z,2.08
2022-09-26T11:12:22.862Z,0.90
2022-09-26T11:15:28.970Z,0.93
2022-09-26T11:18:43.275Z,1.10
2022-09-26T11:21:51.824Z,1.27
2022-09-26T11:28:08.057Z,1.13
2022-09-26T11:31:41.408Z,1.10
2022-09-26T11:35:07.501Z,1.42
2022-09-26T11:38:22.388Z,1.25
2022-09-26T11:41:39.756Z,0.90
2022-09-26T11:44:53.615Z,1.60
2022-09-26T11:48:18.963Z,1.35
2022-09-26T11:52:14.873Z,0.82
2022-09-26T11:55:31.410Z,0.93
2022-09-26T11:58:41.199Z,1.00
2022-09-26T12:01:55.362Z,0.98
2022-09-26T12:05:15.165Z,1.10
2022-09-26T12:08:29.754Z,0.80
2022-09-26T12:11:38.858Z,0.85
2022-09-26T12:14:56.152Z,0.85
2022-09-26T12:18:12.613Z,0.90
2022-09-26T12:21:23.741Z,1.38
2022-09-26T12:24:33.870Z,1.30
2022-09-26T12:27:42.616Z,1.15
2022-09-26T12:30:52.261Z,1.23
2022-09-26T12:34:12.812Z,1.08
2022-09-26T12:37:26.989Z,0.93
2022-09-26T12:40:39.405Z,0.90
2022-09-26T12:44:05.250Z,1.00
2022-09-26T12:47:25.295Z,0.90
2022-09-26T12:50:33.942Z,0.77
2022-09-26T12:53:59.481Z,0.82
2022-09-26T12:57:09.920Z,0.88
2022-09-26T13:00:18.906Z,1.13
2022-09-26T13:03:41.687Z,1.27
2022-09-26T13:07:17.819Z,1.10
2022-09-26T13:10:29.150Z,1.17
2022-09-26T13:13:46.410Z,4.63
2022-09-26T13:16:56.843Z,0.98
2022-09-26T13:20:04.682Z,0.90
2022-09-26T13:23:12.527Z,0.90
2022-09-26T13:26:21.628Z,1.10
2022-09-26T13:29:31.109Z,1.10
2022-09-26T13:32:42.165Z,1.33
2022-09-26T13:35:48.348Z,1.40
2022-09-26T13:38:57.429Z,2.00
2022-09-26T13:42:06.385Z,2.30
2022-09-26T13:45:24.265Z,3.70
2022-09-26T13:48:35.633Z,1.90
2022-09-26T13:51:48.588Z,2.10
2022-09-26T13:54:59.339Z,1.80
2022-09-26T13:58:07.670Z,1.13
2022-09-26T14:01:31.381Z,2.53
2022-09-26T14:04:37.256Z,1.10
2022-09-26T14:08:04.950Z,1.38
2022-09-26T14:11:24.692Z,0.90
2022-09-26T14:14:41.531Z,0.77
2022-09-26T14:18:04.288Z,1.05
2022-09-26T14:21:19.443Z,0.90
2022-09-26T14:24:32.424Z,1.33
2022-09-26T14:27:46.837Z,0.95
2022-09-26T14:31:06.889Z,0.75
2022-09-26T14:34:25.910Z,1.00
2022-09-26T14:37:36.901Z,1.00
2022-09-26T14:40:42.515Z,0.95
2022-09-26T14:43:47.489Z,0.90
2022-09-26T14:46:55.975Z,1.05
2022-09-26T14:50:03.558Z,1.48
2022-09-26T14:53:21.615Z,1.27
2022-09-26T14:56:35.557Z,1.37
2022-09-26T14:59:42.483Z,1.42
2022-09-26T15:02:50.674Z,0.90
2022-09-26T15:05:55.765Z,1.40
2022-09-26T15:09:11.401Z,1.35
2022-09-26T15:12:19.073Z,1.42
2022-09-26T15:15:32.406Z,1.60
2022-09-26T15:18:40.342Z,1.50
2022-09-26T15:21:47.342Z,2.05
2022-09-26T15:24:58.319Z,1.77
2022-09-26T15:28:04.664Z,1.35
2022-09-26T15:31:29.000Z,1.63
2022-09-26T15:34:37.169Z,1.48
2022-09-26T15:37:42.475Z,1.50
2022-09-26T15:41:01.636Z,1.50
2022-09-26T15:44:06.474Z,1.80
2022-09-26T15:47:28.479Z,1.30
2022-09-26T15:50:39.947Z,1.80
2022-09-26T15:53:46.475Z,1.85
2022-09-26T15:56:54.949Z,1.23
2022-09-26T16:03:21.615Z,1.77
2022-09-26T16:06:28.613Z,1.70
2022-09-26T16:09:35.268Z,2.28
2022-09-26T16:12:43.434Z,2.15
2022-09-26T16:15:48.727Z,1.70
2022-09-26T16:18:56.606Z,2.10
2022-09-26T16:22:02.332Z,2.25
2022-09-26T16:25:37.431Z,2.00
2022-09-26T16:28:50.444Z,1.98
2022-09-26T16:31:55.559Z,2.13
2022-09-26T16:35:13.331Z,1.92
2022-09-26T16:38:24.403Z,1.90
2022-09-26T16:41:59.485Z,2.10
2022-09-26T16:44:59.497Z,4.57
2022-09-26T16:48:05.892Z,2.50
2022-09-26T16:51:18.129Z,2.17
2022-09-26T16:54:23.333Z,1.98
2022-09-26T16:57:30.485Z,2.10
2022-09-26T17:00:59.490Z,1.90
2022-09-26T17:04:05.140Z,2.25
2022-09-26T17:07:13.960Z,2.00
2022-09-26T17:13:24.876Z,2.17
2022-09-26T17:16:34.498Z,2.83
2022-09-26T17:19:41.345Z,2.45
2022-09-26T17:22:46.401Z,4.30
2022-09-26T17:25:56.822Z,2.80
2022-09-26T17:29:03.396Z,2.60
2022-09-26T17:32:14.067Z,2.45
2022-09-26T17:35:21.862Z,2.58
2022-09-26T17:38:27.221Z,3.35
2022-09-26T17:41:34.599Z,2.90
2022-09-26T17:44:39.760Z,2.85
2022-09-26T17:47:47.466Z,2.90
2022-09-26T17:50:52.807Z,2.78
2022-09-26T17:53:58.065Z,3.20
2022-09-26T17:57:03.851Z,3.00
2022-09-26T18:00:11.709Z,3.17
2022-09-26T18:03:23.765Z,3.10
2022-09-26T18:06:31.781Z,2.88
2022-09-26T18:09:39.038Z,2.83
2022-09-26T18:12:44.761Z,3.10
2022-09-26T18:15:51.384Z,2.83
2022-09-26T18:19:02.200Z,2.85
2022-09-26T18:22:14.105Z,3.30
2022-09-26T18:25:21.778Z,2.78
2022-09-26T18:28:26.953Z,3.00
2022-09-26T18:31:32.981Z,2.70
2022-09-26T18:34:40.957Z,2.83
2022-09-26T18:37:46.274Z,3.00
2022-09-26T18:40:55.560Z,3.53
2022-09-26T18:44:03.409Z,3.10
2022-09-26T18:47:12.687Z,3.28
2022-09-26T18:50:26.552Z,3.03
2022-09-26T18:53:37.413Z,3.08
2022-09-26T18:56:55.074Z,3.38
2022-09-26T19:00:00.520Z,3.70
2022-09-26T19:03:05.689Z,3.50
2022-09-26T19:06:16.537Z,3.30
2022-09-26T19:09:22.847Z,3.20
2022-09-26T19:12:27.911Z,3.17
2022-09-26T19:15:33.046Z,2.85
2022-09-26T19:18:38.703Z,2.88
2022-09-26T19:21:47.473Z,3.38
2022-09-26T19:24:55.574Z,3.20
2022-09-26T19:28:00.715Z,3.45
2022-09-26T19:31:06.558Z,2.92
2022-09-26T19:34:12.822Z,3.30
2022-09-26T19:37:20.727Z,3.20
2022-09-26T19:40:26.301Z,3.10
2022-09-26T19:43:31.493Z,3.40
2022-09-26T19:46:36.995Z,3.47
2022-09-26T19:49:42.210Z,3.25
2022-09-26T19:52:49.900Z,3.72
2022-09-26T19:55:56.007Z,3.75
2022-09-26T19:59:01.265Z,3.72
2022-09-26T20:02:06.319Z,2.90
2022-09-26T20:05:17.903Z,3.30
2022-09-26T20:08:26.720Z,5.68
2022-09-26T20:11:32.032Z,5.65
2022-09-26T20:14:37.364Z,5.00
2022-09-26T20:17:44.501Z,4.50
2022-09-26T20:20:50.390Z,4.10
2022-09-26T20:23:58.843Z,3.80
2022-09-26T20:30:21.949Z,3.38
2022-09-26T20:33:27.663Z,3.58
2022-09-26T20:36:36.129Z,4.05
2022-09-26T20:39:44.427Z,3.58
2022-09-26T20:42:50.621Z,3.90
2022-09-26T20:45:55.827Z,3.42
2022-09-26T20:49:01.139Z,3.70
2022-09-26T20:52:09.195Z,3.95
2022-09-26T20:55:20.068Z,4.30
2022-09-26T20:58:25.381Z,3.58
2022-09-26T21:01:30.963Z,3.45
2022-09-26T21:04:36.108Z,3.90
2022-09-26T21:07:41.193Z,3.80
2022-09-26T21:10:48.861Z,4.53
2022-09-26T21:13:54.237Z,3.50
2022-09-26T21:16:59.488Z,3.58
2022-09-26T21:20:05.088Z,4.13
2022-09-26T21:23:31.491Z,4.10
2022-09-26T21:26:39.168Z,3.80
2022-09-26T21:29:44.245Z,5.53
2022-09-26T21:32:50.447Z,4.22
2022-09-26T21:35:55.720Z,3.97
2022-09-26T21:39:00.885Z,4.10
2022-09-26T21:42:09.563Z,7.90
2022-09-26T21:45:15.015Z,5.95
2022-09-26T21:48:20.416Z,4.95
2022-09-26T21:51:26.941Z,4.07
2022-09-26T21:54:32.801Z,4.40
2022-09-26T21:57:41.910Z,4.93
2022-09-26T22:00:46.941Z,11.73
2022-09-26T22:03:52.210Z,4.93
2022-09-26T22:06:57.190Z,4.93
2022-09-26T22:10:02.304Z,4.72
2022-09-26T22:13:11.243Z,4.63
2022-09-26T22:16:16.649Z,4.97
2022-09-26T22:19:22.014Z,4.30
2022-09-26T22:22:27.254Z,6.57
2022-09-26T22:25:32.483Z,8.68
2022-09-26T22:28:40.236Z,8.05
2022-09-26T22:31:45.331Z,5.93
2022-09-26T22:34:50.368Z,6.97
2022-09-26T22:37:55.571Z,8.77
2022-09-26T22:41:01.011Z,5.90
2022-09-26T22:44:08.591Z,6.88
2022-09-26T22:47:13.731Z,7.03
2022-09-26T22:50:19.200Z,6.15
2022-09-26T22:53:24.259Z,5.78
2022-09-26T22:56:29.444Z,5.65
2022-09-26T22:59:37.391Z,5.13
2022-09-26T23:02:42.577Z,7.78
2022-09-26T23:05:50.397Z,5.90
2022-09-26T23:08:55.535Z,7.00
2022-09-26T23:12:00.609Z,8.35
2022-09-26T23:15:09.859Z,8.88
2022-09-26T23:18:14.910Z,7.15
2022-09-26T23:21:21.044Z,6.35
2022-09-26T23:24:26.175Z,7.80
2022-09-26T23:27:31.334Z,5.70
2022-09-26T23:30:39.032Z,6.93
2022-09-26T23:33:44.480Z,6.00
2022-09-26T23:36:49.490Z,5.07
2022-09-26T23:39:54.724Z,8.45
2022-09-26T23:42:59.846Z,11.82
2022-09-26T23:46:07.606Z,7.10
2022-09-26T23:49:12.937Z,6.10
2022-09-26T23:52:17.860Z,11.10
2022-09-26T23:55:23.087Z,12.95
2022-09-26T23:58:28.705Z,12.73
